createdAt,value
2019-01-12T00:01:27.283Z,60.78
2019-01-12T00:03:56.448Z,60.49
2019-01-12T00:06:27.224Z,61.21
2019-01-12T00:08:57.482Z,61.13
2019-01-12T00:11:27.751Z,60.30
2019-01-12T00:13:57.999Z,60.37
2019-01-12T00:16:28.730Z,60.55
2019-01-12T00:18:59.187Z,60.54
2019-01-12T00:21:29.524Z,60.77
2019-01-12T00:23:59.804Z,61.13
2019-01-12T00:26:30.044Z,61.40
2019-01-12T00:29:01.548Z,60.54
2019-01-12T00:31:31.895Z,60.16
2019-01-12T00:34:03.558Z,60.37
2019-01-12T00:36:33.969Z,60.51
2019-01-12T00:39:05.126Z,60.89
2019-01-12T00:41:38.344Z,60.97
2019-01-12T00:44:09.345Z,61.19
2019-01-12T00:46:40.563Z,61.15
2019-01-12T00:49:12.781Z,60.97
2019-01-12T00:51:45.344Z,60.88
2019-01-12T00:54:17.171Z,60.98
2019-01-12T00:56:47.744Z,61.03
2019-01-12T00:59:18.034Z,61.43
2019-01-12T01:01:48.408Z,61.56
2019-01-12T01:04:18.647Z,61.55
2019-01-12T01:06:49.009Z,61.59
2019-01-12T01:09:19.190Z,61.99
2019-01-12T01:11:51.145Z,61.92
2019-01-12T01:14:21.548Z,61.90
2019-01-12T01:16:52.265Z,61.84
2019-01-12T01:19:24.787Z,61.38
2019-01-12T01:21:55.435Z,60.32
2019-01-12T01:24:27.931Z,60.42
2019-01-12T01:26:58.179Z,60.97
2019-01-12T01:29:28.442Z,61.14
2019-01-12T01:31:59.499Z,60.38
2019-01-12T01:34:29.871Z,60.00
2019-01-12T01:37:02.455Z,59.55
2019-01-12T01:39:32.787Z,59.21
2019-01-12T01:42:03.440Z,59.31
2019-01-12T01:44:33.627Z,59.76
2019-01-12T01:47:04.001Z,60.44
2019-01-12T01:49:34.631Z,60.54
2019-01-12T01:52:04.830Z,60.02
2019-01-12T01:54:35.144Z,59.94
2019-01-12T01:57:07.851Z,59.85
2019-01-12T01:59:42.270Z,59.85
2019-01-12T02:02:13.972Z,60.02
2019-01-12T02:04:45.095Z,59.81
2019-01-12T02:07:15.964Z,59.79
2019-01-12T02:09:47.029Z,60.01
2019-01-12T02:12:17.804Z,59.19
2019-01-12T02:14:48.151Z,59.64
2019-01-12T02:17:18.505Z,58.37
2019-01-12T02:19:49.162Z,58.77
2019-01-12T02:22:20.213Z,59.25
2019-01-12T02:24:50.503Z,59.25
2019-01-12T02:27:21.168Z,58.79
2019-01-12T02:29:51.405Z,58.23
2019-01-12T02:32:21.752Z,58.53
2019-01-12T02:34:52.371Z,58.94
2019-01-12T02:37:24.819Z,58.83
2019-01-12T02:39:57.674Z,59.25
2019-01-12T02:42:28.834Z,58.73
2019-01-12T02:44:59.045Z,58.65
2019-01-12T02:47:30.683Z,58.38
2019-01-12T02:50:01.657Z,58.67
2019-01-12T02:52:31.894Z,59.14
2019-01-12T02:55:08.555Z,58.95
2019-01-12T02:57:35.309Z,58.75
2019-01-12T03:00:10.316Z,58.62
2019-01-12T03:02:40.915Z,58.60
2019-01-12T03:05:11.217Z,58.21
2019-01-12T03:07:41.720Z,57.88
2019-01-12T03:10:16.927Z,57.50
2019-01-12T03:12:47.573Z,57.01
2019-01-12T03:15:19.258Z,58.31
2019-01-12T03:17:49.542Z,57.90
2019-01-12T03:20:19.982Z,58.23
2019-01-12T03:22:50.494Z,57.88
2019-01-12T03:25:20.821Z,58.40
2019-01-12T03:27:51.127Z,58.12
2019-01-12T03:30:24.377Z,57.68
2019-01-12T03:32:55.312Z,57.52
2019-01-12T03:35:25.679Z,56.96
2019-01-12T03:37:56.679Z,56.90
2019-01-12T03:40:26.966Z,56.79
2019-01-12T03:42:58.739Z,56.99
2019-01-12T03:45:29.090Z,57.09
2019-01-12T03:48:00.133Z,57.44
2019-01-12T03:50:32.740Z,57.28
2019-01-12T03:53:02.979Z,56.72
2019-01-12T03:55:33.253Z,56.68
2019-01-12T03:58:03.501Z,56.65
2019-01-12T04:00:33.848Z,56.84
2019-01-12T04:03:10.280Z,56.49
2019-01-12T04:05:40.538Z,56.31
2019-01-12T04:08:10.726Z,55.17
2019-01-12T04:10:40.964Z,55.78
2019-01-12T04:13:11.153Z,56.43
2019-01-12T04:15:41.374Z,56.60
2019-01-12T04:18:11.652Z,56.48
2019-01-12T04:20:42.098Z,57.30
2019-01-12T04:23:12.668Z,57.18
2019-01-12T04:25:42.913Z,57.32
2019-01-12T04:28:13.164Z,58.00
2019-01-12T04:30:43.429Z,57.75
2019-01-12T04:33:13.708Z,58.04
2019-01-12T04:35:44.021Z,57.66
2019-01-12T04:38:17.409Z,57.47
2019-01-12T04:40:48.327Z,57.74
2019-01-12T04:43:18.565Z,57.41
2019-01-12T04:45:50.914Z,57.12
2019-01-12T04:48:21.140Z,57.50
2019-01-12T04:50:51.409Z,57.11
2019-01-12T04:53:21.772Z,56.82
2019-01-12T04:55:52.059Z,57.01
2019-01-12T04:58:24.982Z,56.95
2019-01-12T05:00:55.141Z,56.90
2019-01-12T05:03:25.345Z,56.53
2019-01-12T05:05:55.546Z,56.15
2019-01-12T05:08:28.613Z,56.31
2019-01-12T05:11:03.143Z,56.43
2019-01-12T05:13:33.352Z,56.02
2019-01-12T05:16:04.731Z,55.53
2019-01-12T05:18:35.070Z,55.53
2019-01-12T05:21:05.297Z,55.17
2019-01-12T05:23:35.579Z,55.57
2019-01-12T05:26:05.858Z,55.92
2019-01-12T05:28:37.869Z,55.78
2019-01-12T05:31:08.052Z,55.21
2019-01-12T05:33:39.250Z,55.56
2019-01-12T05:36:09.543Z,56.29
2019-01-12T05:38:39.721Z,56.32
2019-01-12T05:41:09.908Z,56.58
2019-01-12T05:43:40.236Z,56.60
2019-01-12T05:46:11.328Z,56.11
2019-01-12T05:48:42.771Z,55.96
2019-01-12T05:51:12.981Z,56.15
2019-01-12T05:53:43.241Z,56.62
2019-01-12T05:56:13.825Z,56.70
2019-01-12T05:58:44.025Z,56.26
2019-01-12T06:01:15.107Z,55.90
2019-01-12T06:03:46.478Z,55.92
2019-01-12T06:06:16.774Z,55.75
2019-01-12T06:08:48.660Z,55.69
2019-01-12T06:11:20.183Z,56.35
2019-01-12T06:13:52.136Z,56.35
2019-01-12T06:16:22.430Z,55.49
2019-01-12T06:18:53.553Z,55.53
2019-01-12T06:21:24.741Z,55.04
2019-01-12T06:23:56.160Z,54.95
2019-01-12T06:26:27.203Z,55.09
2019-01-12T06:29:01.080Z,55.17
2019-01-12T06:31:31.324Z,55.35
2019-01-12T06:34:07.476Z,55.80
2019-01-12T06:36:38.968Z,55.59
2019-01-12T06:39:12.391Z,55.50
2019-01-12T06:41:44.314Z,55.31
2019-01-12T06:44:16.547Z,55.63
2019-01-12T06:46:48.190Z,55.53
2019-01-12T06:49:21.257Z,55.42
2019-01-12T06:51:53.585Z,55.48
2019-01-12T06:54:24.609Z,54.99
2019-01-12T06:56:55.661Z,54.71
2019-01-12T06:59:26.101Z,55.53
2019-01-12T07:01:58.996Z,55.45
2019-01-12T07:04:32.558Z,55.08
2019-01-12T07:07:03.731Z,55.21
2019-01-12T07:09:37.685Z,54.73
2019-01-12T07:12:09.306Z,54.92
2019-01-12T07:14:40.492Z,55.17
2019-01-12T07:17:11.661Z,55.01
2019-01-12T07:19:43.117Z,54.93
2019-01-12T07:22:14.361Z,54.87
2019-01-12T07:24:45.477Z,54.60
2019-01-12T07:27:17.675Z,54.38
2019-01-12T07:29:48.336Z,53.53
2019-01-12T07:32:20.728Z,53.53
2019-01-12T07:34:52.201Z,53.65
2019-01-12T07:37:23.317Z,53.21
2019-01-12T07:39:55.509Z,53.17
2019-01-12T07:42:26.986Z,52.86
2019-01-12T07:44:58.131Z,53.64
2019-01-12T07:47:29.349Z,53.48
2019-01-12T07:50:00.550Z,53.93
2019-01-12T07:52:31.727Z,53.33
2019-01-12T07:55:04.039Z,52.65
2019-01-12T07:57:36.928Z,53.11
2019-01-12T08:00:18.774Z,52.65
2019-01-12T08:02:51.415Z,52.34
2019-01-12T08:05:23.386Z,52.92
2019-01-12T08:07:54.481Z,52.61
2019-01-12T08:10:27.082Z,53.34
2019-01-12T08:12:58.331Z,52.46
2019-01-12T08:15:31.615Z,52.64
2019-01-12T08:18:06.344Z,52.31
2019-01-12T08:20:38.238Z,52.78
2019-01-12T08:23:10.247Z,53.45
2019-01-12T08:25:41.419Z,52.42
2019-01-12T08:28:12.559Z,52.32
2019-01-12T08:30:44.877Z,52.73
2019-01-12T08:33:16.857Z,53.15
2019-01-12T08:35:50.397Z,53.67
2019-01-12T08:38:22.079Z,53.67
2019-01-12T08:40:53.249Z,53.39
2019-01-12T08:43:27.152Z,52.99
2019-01-12T08:45:59.127Z,52.95
2019-01-12T08:48:30.327Z,52.81
2019-01-12T08:51:02.289Z,52.83
2019-01-12T08:53:33.448Z,52.93
2019-01-12T08:56:04.594Z,53.30
2019-01-12T08:58:35.860Z,52.72
2019-01-12T09:01:08.155Z,52.77
2019-01-12T09:03:39.307Z,53.18
2019-01-12T09:06:10.436Z,53.41
2019-01-12T09:08:43.967Z,53.46
2019-01-12T09:11:15.106Z,53.56
2019-01-12T09:13:47.169Z,53.45
2019-01-12T09:16:20.862Z,53.82
2019-01-12T09:18:55.002Z,53.83
2019-01-12T09:21:26.162Z,53.64
2019-01-12T09:24:00.696Z,53.35
2019-01-12T09:26:33.513Z,53.01
2019-01-12T09:29:04.650Z,53.08
2019-01-12T09:31:36.995Z,52.72
2019-01-12T09:34:09.011Z,52.52
2019-01-12T09:36:41.438Z,52.88
2019-01-12T09:39:12.633Z,52.68
2019-01-12T09:41:43.762Z,51.85
2019-01-12T09:44:15.832Z,52.47
2019-01-12T09:46:49.392Z,52.74
2019-01-12T09:49:20.844Z,52.59
2019-01-12T09:51:51.989Z,52.08
2019-01-12T09:54:22.174Z,52.05
2019-01-12T09:56:54.697Z,52.43
2019-01-12T09:59:29.955Z,52.23
2019-01-12T10:02:01.558Z,51.55
2019-01-12T10:04:33.456Z,51.78
2019-01-12T10:07:05.684Z,52.05
2019-01-12T10:09:36.832Z,51.55
2019-01-12T10:12:16.098Z,51.68
2019-01-12T10:14:51.840Z,51.58
2019-01-12T10:17:25.208Z,51.07
2019-01-12T10:19:56.406Z,50.87
2019-01-12T10:22:28.673Z,51.33
2019-01-12T10:24:59.993Z,51.24
2019-01-12T10:27:33.425Z,51.21
2019-01-12T10:30:09.268Z,50.88
2019-01-12T10:32:40.406Z,51.42
2019-01-12T10:35:12.432Z,50.96
2019-01-12T10:37:46.345Z,51.54
2019-01-12T10:40:17.558Z,51.79
2019-01-12T10:42:51.589Z,52.61
2019-01-12T10:45:28.518Z,52.92
2019-01-12T10:48:17.149Z,52.75
2019-01-12T10:51:19.623Z,52.57
2019-01-12T10:53:58.935Z,52.10
2019-01-12T10:56:36.180Z,52.96
2019-01-12T10:59:18.304Z,53.37
2019-01-12T11:02:11.535Z,52.71
2019-01-12T11:04:43.940Z,52.45
2019-01-12T11:07:19.899Z,52.13
2019-01-12T11:09:53.821Z,52.50
2019-01-12T11:12:35.903Z,52.58
2019-01-12T11:15:27.978Z,52.04
2019-01-12T11:18:14.111Z,52.13
2019-01-12T11:20:50.871Z,52.27
2019-01-12T11:23:22.436Z,52.48
2019-01-12T11:25:53.826Z,52.41
2019-01-12T11:28:34.658Z,52.01
2019-01-12T11:31:11.832Z,51.78
2019-01-12T11:33:44.634Z,51.34
2019-01-12T11:36:16.639Z,51.21
2019-01-12T11:38:46.946Z,51.19
2019-01-12T11:41:17.149Z,51.04
2019-01-12T11:43:47.363Z,51.03
2019-01-12T11:46:19.453Z,52.14
2019-01-12T11:48:49.978Z,52.59
2019-01-12T11:51:25.272Z,52.75
2019-01-12T11:53:58.363Z,52.28
2019-01-12T11:56:30.264Z,53.13
2019-01-12T11:59:04.541Z,52.85
2019-01-12T12:01:35.664Z,53.02
2019-01-12T12:04:05.876Z,52.73
2019-01-12T12:06:38.722Z,52.87
2019-01-12T12:09:09.756Z,53.17
2019-01-12T12:11:39.939Z,53.61
2019-01-12T12:14:13.223Z,52.76
2019-01-12T12:16:43.444Z,52.41
2019-01-12T12:19:15.511Z,52.55
2019-01-12T12:21:45.752Z,52.41
2019-01-12T12:24:16.033Z,52.19
2019-01-12T12:26:47.772Z,52.57
2019-01-12T12:29:18.020Z,52.95
2019-01-12T12:31:48.259Z,52.89
2019-01-12T12:34:21.210Z,52.63
2019-01-12T12:36:51.377Z,53.10
2019-01-12T12:39:21.937Z,53.45
2019-01-12T12:41:52.095Z,52.79
2019-01-12T12:44:22.395Z,53.34
2019-01-12T12:46:52.950Z,53.02
2019-01-12T12:49:27.206Z,53.19
2019-01-12T12:51:58.389Z,53.55
2019-01-12T12:54:28.717Z,54.11
2019-01-12T12:56:58.844Z,54.38
2019-01-12T12:59:29.343Z,54.71
2019-01-12T13:01:59.567Z,54.87
2019-01-12T13:04:31.384Z,54.53
2019-01-12T13:07:01.983Z,54.26
2019-01-12T13:09:32.141Z,54.26
2019-01-12T13:12:07.935Z,54.25
2019-01-12T13:14:52.126Z,54.74
2019-01-12T13:17:22.393Z,55.02
2019-01-12T13:19:52.989Z,55.04
2019-01-12T13:22:24.054Z,54.24
2019-01-12T13:24:54.373Z,53.57
2019-01-12T13:27:24.910Z,53.65
2019-01-12T13:29:56.096Z,53.48
2019-01-12T13:32:26.373Z,53.77
2019-01-12T13:34:56.636Z,53.24
2019-01-12T13:37:26.826Z,53.14
2019-01-12T13:39:57.616Z,53.16
2019-01-12T13:42:27.884Z,53.40
2019-01-12T13:44:58.314Z,52.88
2019-01-12T13:47:28.758Z,52.61
2019-01-12T13:50:01.586Z,52.49
2019-01-12T13:52:35.345Z,52.59
2019-01-12T13:55:07.607Z,52.54
2019-01-12T13:57:37.827Z,52.00
2019-01-12T14:00:14.847Z,52.15
2019-01-12T14:02:45.098Z,52.37
2019-01-12T14:05:18.136Z,52.51
2019-01-12T14:07:56.605Z,52.71
2019-01-12T14:10:24.524Z,52.58
2019-01-12T14:12:54.984Z,53.23
2019-01-12T14:15:31.237Z,53.57
2019-01-12T14:18:14.159Z,53.24
2019-01-12T14:20:49.272Z,53.72
2019-01-12T14:23:23.321Z,53.69
2019-01-12T14:25:53.595Z,54.00
2019-01-12T14:28:23.897Z,54.58
2019-01-12T14:31:08.285Z,54.02
2019-01-12T14:33:38.454Z,54.10
2019-01-12T14:36:12.126Z,54.17
2019-01-12T14:38:42.469Z,54.45
2019-01-12T14:41:15.809Z,54.63
2019-01-12T14:43:46.168Z,55.00
2019-01-12T14:46:20.059Z,54.89
2019-01-12T14:48:53.419Z,55.23
2019-01-12T14:51:23.616Z,54.81
2019-01-12T14:53:53.887Z,54.65
2019-01-12T14:56:34.959Z,54.68
2019-01-12T14:59:23.445Z,55.06
2019-01-12T15:01:56.195Z,54.43
2019-01-12T15:04:35.293Z,54.65
2019-01-12T15:07:13.284Z,54.09
2019-01-12T15:09:47.519Z,54.09
2019-01-12T15:12:28.219Z,54.54
2019-01-12T15:15:04.743Z,54.45
2019-01-12T15:17:38.450Z,54.56
2019-01-12T15:20:11.482Z,54.34
2019-01-12T15:22:43.214Z,54.60
2019-01-12T15:25:14.091Z,54.82
2019-01-12T15:27:45.502Z,54.77
2019-01-12T15:30:39.543Z,54.87
2019-01-12T15:33:14.144Z,55.39
2019-01-12T15:35:49.211Z,55.40
2019-01-12T15:38:24.228Z,55.70
2019-01-12T15:40:58.644Z,55.33
2019-01-12T15:43:40.840Z,55.15
2019-01-12T15:46:13.167Z,55.16
2019-01-12T15:48:48.033Z,55.04
2019-01-12T15:51:24.126Z,55.32
2019-01-12T15:54:01.338Z,55.53
2019-01-12T15:56:37.733Z,55.67
2019-01-12T16:02:01.969Z,55.21
2019-01-12T16:07:34.883Z,55.10
2019-01-12T16:13:47.241Z,54.93
2019-01-12T16:16:53.854Z,55.33
2019-01-12T16:19:49.030Z,54.75
2019-01-12T16:22:21.413Z,54.83
2019-01-12T16:27:48.513Z,55.22
2019-01-12T16:34:04.068Z,55.59
2019-01-12T16:39:54.521Z,55.53
2019-01-12T16:42:59.830Z,55.82
2019-01-12T16:45:44.242Z,56.47
2019-01-12T16:51:37.352Z,56.36
2019-01-12T16:54:09.426Z,56.13
2019-01-12T16:56:39.641Z,56.93
2019-01-12T17:00:01.064Z,56.54
2019-01-12T17:05:43.068Z,56.64
2019-01-12T17:08:14.199Z,57.25
2019-01-12T17:10:44.371Z,57.51
2019-01-12T17:13:14.656Z,57.22
2019-01-12T17:15:53.596Z,57.61
2019-01-12T17:21:25.073Z,57.71
2019-01-12T17:26:48.615Z,57.37
2019-01-12T17:29:18.789Z,57.62
2019-01-12T17:32:09.785Z,57.79
2019-01-12T17:34:40.003Z,57.79
2019-01-12T17:37:29.755Z,57.43
2019-01-12T17:40:18.999Z,57.42
2019-01-12T17:42:49.212Z,57.46
2019-01-12T17:48:04.843Z,57.52
2019-01-12T17:53:27.979Z,57.15
2019-01-12T17:55:59.961Z,57.29
2019-01-12T17:58:31.194Z,57.76
2019-01-12T18:01:01.401Z,57.19
2019-01-12T18:03:32.565Z,57.10
2019-01-12T18:09:32.694Z,57.14
2019-01-12T18:12:03.821Z,56.97
2019-01-12T18:14:53.656Z,57.41
2019-01-12T18:17:54.428Z,56.83
2019-01-12T18:20:45.390Z,56.33
2019-01-12T18:23:35.151Z,56.81
2019-01-12T18:26:26.126Z,56.74
2019-01-12T18:28:56.313Z,56.74
2019-01-12T18:31:27.468Z,57.40
2019-01-12T18:34:17.492Z,56.77
2019-01-12T18:39:51.166Z,57.32
2019-01-12T18:42:21.374Z,57.49
2019-01-12T18:44:51.510Z,57.67
2019-01-12T18:47:44.225Z,57.60
2019-01-12T18:50:39.851Z,57.00
2019-01-12T18:53:29.118Z,57.51
2019-01-12T19:00:00.430Z,56.97
2019-01-12T19:02:50.391Z,57.10
2019-01-12T19:06:03.074Z,57.20
2019-01-12T19:12:25.711Z,56.34
2019-01-12T19:21:29.316Z,55.93
2019-01-12T19:24:38.068Z,56.32
2019-01-12T19:27:10.128Z,56.02
2019-01-12T19:29:41.454Z,56.55
2019-01-12T19:32:43.572Z,56.76
2019-01-12T19:35:33.697Z,56.79
2019-01-12T19:37:55.614Z,56.47
2019-01-12T19:40:30.004Z,57.00
2019-01-12T19:43:02.204Z,57.64
2019-01-12T19:45:34.271Z,57.38
2019-01-12T19:48:05.390Z,57.14
2019-01-12T19:50:56.273Z,57.54
2019-01-12T19:53:47.130Z,57.55
2019-01-12T19:56:19.034Z,57.31
2019-01-12T19:58:51.036Z,57.52
2019-01-12T20:01:22.784Z,57.37
2019-01-12T20:10:11.824Z,57.37
2019-01-12T20:15:34.655Z,57.52
2019-01-12T20:18:04.846Z,57.54
2019-01-12T20:20:35.085Z,57.73
2019-01-12T20:23:06.194Z,57.83
2019-01-12T20:25:37.299Z,57.88
2019-01-12T20:31:26.357Z,57.93
2019-01-12T20:34:35.533Z,57.69
2019-01-12T20:37:45.420Z,57.61
2019-01-12T20:40:59.061Z,57.24
2019-01-12T20:47:36.705Z,57.48
2019-01-12T20:50:47.032Z,56.83
2019-01-12T20:53:44.439Z,57.27
2019-01-12T20:56:54.279Z,57.61
2019-01-12T21:00:05.763Z,57.37
2019-01-12T21:03:15.644Z,58.15
2019-01-12T21:06:24.925Z,58.39
2019-01-12T21:09:36.384Z,58.27
2019-01-12T21:12:45.439Z,58.32
2019-01-12T21:15:54.685Z,58.13
2019-01-12T21:18:43.834Z,58.11
2019-01-12T21:21:15.786Z,58.21
2019-01-12T21:23:48.214Z,57.81
2019-01-12T21:26:37.379Z,57.52
2019-01-12T21:29:09.391Z,58.71
2019-01-12T21:31:39.686Z,58.71
2019-01-12T21:34:41.005Z,58.51
2019-01-12T21:37:02.838Z,58.38
2019-01-12T21:39:33.164Z,58.55
2019-01-12T21:42:05.246Z,58.62
2019-01-12T21:44:36.406Z,58.38
2019-01-12T21:47:26.444Z,57.77
2019-01-12T21:52:48.282Z,56.34
2019-01-12T21:55:18.567Z,57.05
2019-01-12T21:58:09.557Z,57.26
2019-01-12T22:07:41.043Z,55.34
2019-01-12T22:16:45.564Z,53.03
2019-01-12T22:19:16.730Z,52.16
2019-01-12T22:21:47.858Z,52.13
2019-01-12T22:24:37.980Z,52.98
2019-01-12T22:27:09.104Z,53.42
2019-01-12T22:29:49.605Z,54.55
2019-01-12T22:35:21.740Z,55.18
2019-01-12T22:38:15.501Z,56.05
2019-01-12T22:40:46.696Z,55.92
2019-01-12T22:46:24.233Z,55.34
2019-01-12T22:49:14.376Z,55.58
2019-01-12T22:52:26.151Z,55.04
2019-01-12T22:55:17.158Z,54.70
2019-01-12T22:57:49.159Z,55.29
2019-01-12T23:03:31.782Z,54.64
2019-01-12T23:06:02.998Z,54.47
2019-01-12T23:08:53.361Z,54.03
2019-01-12T23:11:55.472Z,53.89
2019-01-12T23:14:46.473Z,53.71
2019-01-12T23:17:37.429Z,53.36
2019-01-12T23:20:27.558Z,53.12
2019-01-12T23:23:17.671Z,53.65
2019-01-12T23:26:10.891Z,53.41
2019-01-12T23:34:16.100Z,53.30
2019-01-12T23:36:47.238Z,53.62
2019-01-12T23:39:22.115Z,53.35
2019-01-12T23:42:12.200Z,52.72
2019-01-12T23:44:43.458Z,52.83
2019-01-12T23:47:14.632Z,53.42
2019-01-12T23:50:04.690Z,53.58
2019-01-12T23:58:42.725Z,53.18
